Time;durP1;ratioP1;P1;durP2;ratioP2;P2;SDS_P1;SDS_P2;PMS_P1;PMS_P2;Temp;Humidity;BMP_temperature;BMP_pressure;BME280_temperature;BME280_humidity;BME280_pressure;Samples;Min_cycle;Max_cycle;Signal;HPM_P1;HPM_P2
2022/03/23 00:01:56;;;;;;;28.10;15.85;;;;;;;;;;5039856;28;20033;-72
2022/03/23 00:04:23;;;;;;;35.65;18.13;;;;;;;;;;5039754;28;20024;-77
2022/03/23 00:06:49;;;;;;;29.75;17.17;;;;;;;;;;5041646;28;20038;-75
2022/03/23 00:09:15;;;;;;;36.83;16.80;;;;;;;;;;5051573;28;20096;-75
2022/03/23 00:11:41;;;;;;;30.55;17.42;;;;;;;;;;5051440;28;20037;-74
2022/03/23 00:14:09;;;;;;;32.55;16.52;;;;;;;;;;5051906;28;20021;-73
2022/03/23 00:16:36;;;;;;;32.10;16.92;;;;;;;;;;5051993;28;20029;-72
2022/03/23 00:19:03;;;;;;;37.42;16.95;;;;;;;;;;5052068;28;20111;-73
2022/03/23 00:21:29;;;;;;;31.85;17.42;;;;;;;;;;5048254;28;20029;-73
2022/03/23 00:23:55;;;;;;;28.23;14.80;;;;;;;;;;5037382;28;20494;-72
2022/03/23 00:26:21;;;;;;;27.77;16.65;;;;;;;;;;5051077;28;20577;-72
2022/03/23 00:28:48;;;;;;;39.58;19.38;;;;;;;;;;5052197;28;20086;-72
2022/03/23 00:31:15;;;;;;;52.47;21.50;;;;;;;;;;5050718;28;20021;-71
2022/03/23 00:33:41;;;;;;;30.90;16.45;;;;;;;;;;5049205;28;20033;-72
2022/03/23 00:36:09;;;;;;;34.85;16.88;;;;;;;;;;5048223;28;20025;-73
2022/03/23 00:38:35;;;;;;;33.65;14.55;;;;;;;;;;5035072;28;20103;-73
2022/03/23 00:41:03;;;;;;;30.70;16.00;;;;;;;;;;5054123;28;20060;-73
2022/03/23 00:43:29;;;;;;;27.58;13.77;;;;;;;;;;5055245;28;20427;-73
2022/03/23 00:45:55;;;;;;;33.45;15.05;;;;;;;;;;5040934;28;20048;-73
2022/03/23 00:48:21;;;;;;;31.13;14.15;;;;;;;;;;5017253;28;20466;-74
2022/03/23 00:50:47;;;;;;;26.25;14.77;;;;;;;;;;5017831;28;20071;-73
2022/03/23 00:53:13;;;;;;;32.15;15.77;;;;;;;;;;5035884;28;20060;-74
2022/03/23 00:55:42;;;;;;;32.55;15.70;;;;;;;;;;5032709;28;20044;-74
2022/03/23 00:58:09;;;;;;;29.42;14.90;;;;;;;;;;5039813;28;20033;-74
2022/03/23 01:00:35;;;;;;;31.13;15.48;;;;;;;;;;5047680;28;20017;-74
2022/03/23 01:03:02;;;;;;;34.25;16.23;;;;;;;;;;5050070;28;20083;-74
2022/03/23 01:05:28;;;;;;;25.58;15.32;;;;;;;;;;5044870;28;20107;-74
2022/03/23 01:07:54;;;;;;;26.88;15.20;;;;;;;;;;5050534;28;20049;-74
2022/03/23 01:10:21;;;;;;;30.20;15.98;;;;;;;;;;5038143;28;20037;-74
2022/03/23 01:12:48;;;;;;;32.38;15.68;;;;;;;;;;5040710;28;20037;-72
2022/03/23 01:15:15;;;;;;;34.53;16.67;;;;;;;;;;5051062;28;20036;-73
2022/03/23 01:17:41;;;;;;;30.77;15.43;;;;;;;;;;5050692;28;20056;-73
2022/03/23 01:20:09;;;;;;;30.35;15.77;;;;;;;;;;5050089;28;20029;-73
2022/03/23 01:22:35;;;;;;;31.60;16.90;;;;;;;;;;5051638;28;20040;-73
2022/03/23 01:25:03;;;;;;;30.88;15.07;;;;;;;;;;5048165;28;20453;-74
2022/03/23 01:27:29;;;;;;;27.92;15.25;;;;;;;;;;5044696;28;20390;-73
2022/03/23 01:29:55;;;;;;;28.60;15.55;;;;;;;;;;5048000;28;20110;-72
2022/03/23 01:32:21;;;;;;;27.55;15.40;;;;;;;;;;5050104;28;20078;-72
2022/03/23 01:34:48;;;;;;;34.80;16.33;;;;;;;;;;5050511;28;20037;-72
2022/03/23 01:37:14;;;;;;;28.20;14.80;;;;;;;;;;5051369;28;20051;-73
2022/03/23 01:39:40;;;;;;;27.48;15.00;;;;;;;;;;5051298;28;20130;-72
2022/03/23 01:42:07;;;;;;;27.92;15.65;;;;;;;;;;5051301;28;20087;-73
2022/03/23 01:44:33;;;;;;;29.13;14.50;;;;;;;;;;5050288;28;20040;-72
2022/03/23 01:47:03;;;;;;;27.67;14.18;;;;;;;;;;5050840;28;20090;-73
2022/03/23 01:49:30;;;;;;;25.10;13.93;;;;;;;;;;5050550;28;20029;-73
2022/03/23 01:51:56;;;;;;;28.30;14.60;;;;;;;;;;5050983;28;20037;-72
2022/03/23 01:54:22;;;;;;;26.60;14.90;;;;;;;;;;5051483;28;20028;-73
2022/03/23 01:56:49;;;;;;;33.08;14.75;;;;;;;;;;5049673;28;20037;-72
2022/03/23 01:59:16;;;;;;;31.55;14.70;;;;;;;;;;5051332;28;20036;-73
2022/03/23 02:01:43;;;;;;;28.45;14.43;;;;;;;;;;5049977;28;20060;-73
2022/03/23 02:04:10;;;;;;;26.80;14.65;;;;;;;;;;5050789;28;20029;-73
2022/03/23 02:06:37;;;;;;;37.55;16.80;;;;;;;;;;5050806;28;20037;-73
2022/03/23 02:09:03;;;;;;;33.75;15.55;;;;;;;;;;5048963;28;20115;-72
2022/03/23 02:11:30;;;;;;;26.90;15.00;;;;;;;;;;5050308;28;20417;-73
2022/03/23 02:13:57;;;;;;;35.20;16.70;;;;;;;;;;5049728;28;20578;-72
2022/03/23 02:16:23;;;;;;;36.83;17.23;;;;;;;;;;5050774;28;20033;-73
2022/03/23 02:18:49;;;;;;;27.90;16.33;;;;;;;;;;5049234;28;20045;-74
2022/03/23 02:21:16;;;;;;;30.65;16.02;;;;;;;;;;5050786;28;20044;-74
2022/03/23 02:23:42;;;;;;;30.23;15.98;;;;;;;;;;5050680;28;20112;-74
2022/03/23 02:26:09;;;;;;;27.48;15.18;;;;;;;;;;5050476;28;20037;-74
2022/03/23 02:28:38;;;;;;;28.13;15.40;;;;;;;;;;5050479;28;20091;-73
2022/03/23 02:31:05;;;;;;;33.15;15.15;;;;;;;;;;5049115;28;20029;-74
2022/03/23 02:33:31;;;;;;;33.88;16.40;;;;;;;;;;5049977;28;20125;-73
2022/03/23 02:35:57;;;;;;;37.90;15.90;;;;;;;;;;5050686;28;20037;-73
2022/03/23 02:38:23;;;;;;;30.88;15.65;;;;;;;;;;5049105;28;20367;-73
2022/03/23 02:40:49;;;;;;;33.08;15.40;;;;;;;;;;5050524;28;20120;-74
2022/03/23 02:43:15;;;;;;;29.75;15.70;;;;;;;;;;5050666;28;20483;-73
2022/03/23 02:45:41;;;;;;;31.00;15.68;;;;;;;;;;5050615;28;20060;-74
2022/03/23 02:48:09;;;;;;;31.33;15.45;;;;;;;;;;5050085;28;20037;-74
2022/03/23 02:50:35;;;;;;;30.42;16.75;;;;;;;;;;5050474;28;20029;-73
2022/03/23 03:01:54;;;;;;;37.17;16.15;;;;;;;;;;5048831;28;20075;-73
2022/03/23 03:04:24;;;;;;;33.72;16.25;;;;;;;;;;5049168;28;20036;-74
2022/03/23 03:06:50;;;;;;;32.60;15.93;;;;;;;;;;5050167;28;20073;-74
2022/03/23 03:09:17;;;;;;;37.25;16.73;;;;;;;;;;5049548;28;20106;-73
2022/03/23 03:11:43;;;;;;;29.83;16.10;;;;;;;;;;5049930;28;20033;-73
2022/03/23 03:14:10;;;;;;;31.85;15.80;;;;;;;;;;5048434;28;20040;-73
2022/03/23 03:16:36;;;;;;;37.08;16.63;;;;;;;;;;5050659;28;20040;-82
2022/03/23 03:19:05;;;;;;;31.70;16.40;;;;;;;;;;5049504;28;20035;-81
2022/03/23 03:21:32;;;;;;;34.55;16.27;;;;;;;;;;5050420;28;20108;-82
2022/03/23 03:23:58;;;;;;;37.25;15.98;;;;;;;;;;5048030;28;20166;-78
2022/03/23 03:26:25;;;;;;;33.45;16.27;;;;;;;;;;5049684;28;20055;-77
2022/03/23 03:28:51;;;;;;;34.75;17.02;;;;;;;;;;5050101;28;20116;-77
2022/03/23 03:31:17;;;;;;;39.28;16.98;;;;;;;;;;5049456;28;20017;-77
2022/03/23 03:33:44;;;;;;;42.60;16.88;;;;;;;;;;5050331;28;20037;-79
2022/03/23 03:36:10;;;;;;;42.70;16.75;;;;;;;;;;5050589;28;20029;-78
2022/03/23 03:38:37;;;;;;;32.20;15.00;;;;;;;;;;5050088;28;20529;-78
2022/03/23 03:41:03;;;;;;;31.83;15.02;;;;;;;;;;5049856;28;20033;-78
2022/03/23 03:43:30;;;;;;;30.10;15.77;;;;;;;;;;5049993;28;20033;-76
2022/03/23 03:45:56;;;;;;;30.65;16.58;;;;;;;;;;5049523;28;20025;-79
2022/03/23 03:48:22;;;;;;;34.28;16.00;;;;;;;;;;5049707;28;20049;-75
2022/03/23 03:50:48;;;;;;;30.98;15.13;;;;;;;;;;5049681;28;20040;-75
2022/03/23 03:53:15;;;;;;;34.20;15.45;;;;;;;;;;5048550;28;20040;-75
2022/03/23 03:55:41;;;;;;;31.02;14.88;;;;;;;;;;5042536;28;20107;-76
2022/03/23 03:58:14;;;;;;;32.53;15.80;;;;;;;;;;5037169;28;20119;-76
2022/03/23 04:00:41;;;;;;;32.28;14.93;;;;;;;;;;5049259;28;20025;-79
2022/03/23 04:03:07;;;;;;;34.10;15.75;;;;;;;;;;5049496;28;20053;-76
2022/03/23 04:05:34;;;;;;;32.92;15.35;;;;;;;;;;5049780;28;20090;-78
2022/03/23 04:08:00;;;;;;;33.00;15.90;;;;;;;;;;5048829;28;20059;-75
2022/03/23 04:10:26;;;;;;;31.42;15.23;;;;;;;;;;5049235;28;20497;-75
2022/03/23 04:12:53;;;;;;;30.95;16.10;;;;;;;;;;5051152;28;20074;-75
2022/03/23 04:15:20;;;;;;;27.17;15.52;;;;;;;;;;5053497;28;20028;-76
2022/03/23 04:17:47;;;;;;;30.20;15.13;;;;;;;;;;5054225;28;20029;-76
2022/03/23 04:20:13;;;;;;;32.83;16.05;;;;;;;;;;5053989;28;20108;-77
2022/03/23 04:22:39;;;;;;;29.83;14.93;;;;;;;;;;5056867;28;20060;-76
2022/03/23 04:25:09;;;;;;;29.38;15.35;;;;;;;;;;5056570;28;20377;-76
2022/03/23 04:27:44;;;;;;;33.42;14.60;;;;;;;;;;5036760;28;20092;-75
2022/03/23 04:30:12;;;;;;;33.90;14.35;;;;;;;;;;5053851;28;20025;-76
2022/03/23 04:32:38;;;;;;;38.80;15.73;;;;;;;;;;5051892;28;20450;-75
2022/03/23 04:35:05;;;;;;;30.40;15.50;;;;;;;;;;5053071;28;20466;-79
2022/03/23 04:37:31;;;;;;;33.28;14.05;;;;;;;;;;5056814;28;20040;-77
2022/03/23 04:39:57;;;;;;;36.75;16.30;;;;;;;;;;5054917;28;20037;-77
2022/03/23 04:42:23;;;;;;;34.55;14.75;;;;;;;;;;5054891;28;20486;-77
2022/03/23 04:44:49;;;;;;;27.80;14.63;;;;;;;;;;5056086;28;20470;-76
2022/03/23 04:47:16;;;;;;;30.50;14.80;;;;;;;;;;5056227;28;20037;-77
2022/03/23 04:49:42;;;;;;;29.92;15.50;;;;;;;;;;5054832;28;20065;-76
2022/03/23 04:52:08;;;;;;;30.60;14.23;;;;;;;;;;5056977;28;20481;-75
2022/03/23 04:54:34;;;;;;;32.88;15.55;;;;;;;;;;5056909;28;20382;-76
2022/03/23 04:57:00;;;;;;;31.88;14.43;;;;;;;;;;5056271;28;20083;-75
2022/03/23 04:59:27;;;;;;;27.75;14.95;;;;;;;;;;5056544;28;20445;-78
2022/03/23 05:01:53;;;;;;;33.63;15.77;;;;;;;;;;5057487;28;20031;-75
2022/03/23 05:04:19;;;;;;;28.52;15.15;;;;;;;;;;5056414;28;20096;-76
2022/03/23 05:06:45;;;;;;;30.42;15.07;;;;;;;;;;5057013;28;20090;-78
2022/03/23 05:09:11;;;;;;;35.35;15.23;;;;;;;;;;5064529;28;20426;-76
2022/03/23 05:11:37;;;;;;;33.50;15.00;;;;;;;;;;5063692;28;20489;-79
2022/03/23 05:14:03;;;;;;;30.20;14.43;;;;;;;;;;5064512;28;20025;-75
2022/03/23 05:16:30;;;;;;;31.33;14.63;;;;;;;;;;5063972;28;20039;-74
2022/03/23 05:18:56;;;;;;;34.28;14.68;;;;;;;;;;5071032;28;20029;-75
2022/03/23 05:21:23;;;;;;;28.92;14.68;;;;;;;;;;5068262;28;20059;-75
2022/03/23 05:23:49;;;;;;;27.95;14.40;;;;;;;;;;5069539;28;20059;-75
2022/03/23 05:26:16;;;;;;;27.90;15.93;;;;;;;;;;5070124;28;20088;-76
2022/03/23 05:28:42;;;;;;;36.88;15.43;;;;;;;;;;5069985;28;20041;-74
2022/03/23 05:31:09;;;;;;;32.45;15.48;;;;;;;;;;5070561;28;20025;-75
2022/03/23 05:33:35;;;;;;;33.17;14.27;;;;;;;;;;5070557;28;20032;-73
2022/03/23 05:36:03;;;;;;;33.53;15.40;;;;;;;;;;5069858;28;20089;-74
2022/03/23 05:38:31;;;;;;;32.83;15.70;;;;;;;;;;5061800;28;20029;-76
2022/03/23 05:40:57;;;;;;;30.95;15.02;;;;;;;;;;5057989;28;20047;-76
2022/03/23 05:43:23;;;;;;;30.80;16.25;;;;;;;;;;5064120;28;20023;-75
2022/03/23 05:45:49;;;;;;;38.63;15.70;;;;;;;;;;5071746;28;20029;-77
2022/03/23 05:48:16;;;;;;;41.05;16.35;;;;;;;;;;5066523;28;20036;-77
2022/03/23 05:50:43;;;;;;;40.15;16.08;;;;;;;;;;5066972;28;20025;-80
2022/03/23 05:53:09;;;;;;;36.63;14.43;;;;;;;;;;5063154;28;20076;-82
2022/03/23 05:55:36;;;;;;;33.20;15.63;;;;;;;;;;5055508;28;20039;-76
2022/03/23 05:58:03;;;;;;;34.38;16.10;;;;;;;;;;5055514;28;20495;-77
2022/03/23 06:00:31;;;;;;;34.28;16.20;;;;;;;;;;5055197;28;20025;-78
2022/03/23 06:02:57;;;;;;;39.95;16.00;;;;;;;;;;5054916;28;20033;-75
2022/03/23 06:05:24;;;;;;;30.13;15.88;;;;;;;;;;5054062;28;20040;-76
2022/03/23 06:07:51;;;;;;;34.15;16.20;;;;;;;;;;5053121;28;20703;-75
2022/03/23 06:10:18;;;;;;;37.95;15.88;;;;;;;;;;5053697;28;20013;-78
2022/03/23 06:12:44;;;;;;;45.50;15.40;;;;;;;;;;5054826;28;20032;-79
2022/03/23 06:15:11;;;;;;;34.83;15.95;;;;;;;;;;5055149;28;20029;-79
2022/03/23 06:17:37;;;;;;;36.38;16.45;;;;;;;;;;5054388;28;20371;-76
2022/03/23 06:20:04;;;;;;;48.95;16.83;;;;;;;;;;5054694;28;20032;-75
2022/03/23 06:22:31;;;;;;;37.65;17.42;;;;;;;;;;5054321;28;20021;-74
2022/03/23 06:24:57;;;;;;;37.53;16.30;;;;;;;;;;5054570;28;20537;-74
2022/03/23 06:27:23;;;;;;;40.58;16.35;;;;;;;;;;5054750;28;20047;-79
2022/03/23 06:29:49;;;;;;;35.20;16.85;;;;;;;;;;5054749;28;20115;-75
2022/03/23 06:32:16;;;;;;;42.25;16.85;;;;;;;;;;5054817;28;20071;-77
2022/03/23 06:34:42;;;;;;;37.67;16.98;;;;;;;;;;5054279;28;20039;-77
2022/03/23 06:37:08;;;;;;;36.92;16.48;;;;;;;;;;5053290;28;20033;-77
2022/03/23 06:39:35;;;;;;;43.22;17.80;;;;;;;;;;5054128;28;20025;-76
2022/03/23 06:42:01;;;;;;;38.05;16.88;;;;;;;;;;5055662;28;20105;-76
2022/03/23 06:44:28;;;;;;;35.78;16.95;;;;;;;;;;5056173;28;20029;-76
2022/03/23 06:46:55;;;;;;;43.45;17.15;;;;;;;;;;5055840;28;20072;-74
2022/03/23 06:49:21;;;;;;;37.15;16.95;;;;;;;;;;5035987;28;20094;-75
2022/03/23 06:51:47;;;;;;;40.30;16.60;;;;;;;;;;5052944;28;20029;-75
2022/03/23 06:54:13;;;;;;;38.65;16.77;;;;;;;;;;5054112;28;20028;-78
2022/03/23 06:56:39;;;;;;;33.85;16.42;;;;;;;;;;5054098;28;20489;-80
2022/03/23 06:59:05;;;;;;;39.47;17.55;;;;;;;;;;5053830;28;20103;-75
2022/03/23 07:01:32;;;;;;;46.35;17.73;;;;;;;;;;5053807;28;20036;-77
2022/03/23 07:03:58;;;;;;;46.45;17.13;;;;;;;;;;5054202;28;20029;-79
2022/03/23 07:06:24;;;;;;;37.95;16.90;;;;;;;;;;5053950;28;20024;-75
2022/03/23 07:11:34;;;;;;;47.83;18.27;;;;;;;;;;5054260;28;20036;-82
2022/03/23 07:14:01;;;;;;;50.00;19.55;;;;;;;;;;5048113;28;20034;-83
2022/03/23 07:16:28;;;;;;;42.75;17.27;;;;;;;;;;5046471;28;20017;-80
2022/03/23 07:18:54;;;;;;;45.60;18.88;;;;;;;;;;5053262;28;20129;-81
2022/03/23 07:21:20;;;;;;;39.40;17.95;;;;;;;;;;5053199;28;20058;-85
2022/03/23 07:23:47;;;;;;;49.83;18.90;;;;;;;;;;5046264;28;20478;-81
2022/03/23 07:26:16;;;;;;;46.78;18.88;;;;;;;;;;5046735;28;20052;-82
2022/03/23 07:28:42;;;;;;;50.25;18.10;;;;;;;;;;5041382;28;20419;-79
2022/03/23 07:31:08;;;;;;;36.97;18.02;;;;;;;;;;5044633;28;20035;-80
2022/03/23 07:33:35;;;;;;;37.17;17.45;;;;;;;;;;5052811;28;20029;-80
2022/03/23 07:36:02;;;;;;;41.88;17.52;;;;;;;;;;5044605;28;20378;-76
2022/03/23 07:38:28;;;;;;;38.88;18.65;;;;;;;;;;5048464;28;20040;-76
2022/03/23 07:40:55;;;;;;;49.13;19.08;;;;;;;;;;5040475;28;20017;-77
2022/03/23 07:43:21;;;;;;;40.35;17.83;;;;;;;;;;5047036;28;20094;-76
2022/03/23 07:45:47;;;;;;;44.30;17.83;;;;;;;;;;5034419;28;20045;-76
2022/03/23 07:48:15;;;;;;;41.50;17.35;;;;;;;;;;5047026;28;20112;-78
2022/03/23 07:50:41;;;;;;;39.67;19.33;;;;;;;;;;5045656;28;20029;-75
2022/03/23 07:53:07;;;;;;;42.42;18.33;;;;;;;;;;5037053;28;20555;-78
2022/03/23 07:55:33;;;;;;;41.40;18.17;;;;;;;;;;5038145;28;20124;-80
2022/03/23 07:58:01;;;;;;;37.80;18.13;;;;;;;;;;5034115;28;20128;-80
2022/03/23 08:00:27;;;;;;;46.28;19.50;;;;;;;;;;5052778;28;20092;-76
2022/03/23 08:02:53;;;;;;;38.55;17.63;;;;;;;;;;5051602;28;20029;-76
2022/03/23 08:05:19;;;;;;;41.08;19.35;;;;;;;;;;5040479;28;20032;-76
2022/03/23 08:07:45;;;;;;;33.65;17.50;;;;;;;;;;5032065;28;20042;-78
2022/03/23 08:10:12;;;;;;;42.40;18.98;;;;;;;;;;5046854;28;20029;-76
2022/03/23 08:12:38;;;;;;;38.67;18.15;;;;;;;;;;5052303;28;20047;-78
2022/03/23 08:15:04;;;;;;;39.15;18.08;;;;;;;;;;5050829;28;20098;-77
2022/03/23 08:17:30;;;;;;;38.92;17.50;;;;;;;;;;5051808;28;20029;-77
2022/03/23 08:22:41;;;;;;;44.03;19.20;;;;;;;;;;5043043;28;20559;-77
2022/03/23 08:25:07;;;;;;;36.47;17.08;;;;;;;;;;5052390;28;20036;-76
2022/03/23 08:27:33;;;;;;;39.80;18.42;;;;;;;;;;5051603;28;20093;-76
2022/03/23 08:30:00;;;;;;;37.28;18.13;;;;;;;;;;5053600;28;20025;-76
2022/03/23 08:32:26;;;;;;;39.45;18.52;;;;;;;;;;5053752;28;20029;-76
2022/03/23 08:34:53;;;;;;;35.47;17.10;;;;;;;;;;5052534;28;20032;-76
2022/03/23 08:37:19;;;;;;;41.55;17.42;;;;;;;;;;5045770;28;20035;-78
2022/03/23 08:39:45;;;;;;;33.92;16.45;;;;;;;;;;5037964;28;20033;-78
2022/03/23 08:42:11;;;;;;;36.60;16.70;;;;;;;;;;5036944;28;20459;-78
2022/03/23 08:44:40;;;;;;;37.10;16.52;;;;;;;;;;5042944;28;20045;-77
2022/03/23 08:47:06;;;;;;;44.35;18.63;;;;;;;;;;5028504;28;20510;-78
2022/03/23 08:49:32;;;;;;;39.22;17.63;;;;;;;;;;5036840;28;20036;-79
2022/03/23 08:51:58;;;;;;;37.33;17.08;;;;;;;;;;5020260;28;20029;-78
2022/03/23 08:54:24;;;;;;;33.45;16.63;;;;;;;;;;5032604;28;20030;-75
2022/03/23 08:56:51;;;;;;;35.40;15.52;;;;;;;;;;5031363;28;20117;-76
2022/03/23 08:59:17;;;;;;;35.03;16.83;;;;;;;;;;5013764;28;20032;-76
2022/03/23 09:01:43;;;;;;;35.63;15.68;;;;;;;;;;5018097;28;20033;-77
2022/03/23 09:04:10;;;;;;;35.65;15.75;;;;;;;;;;5017814;28;20029;-77
2022/03/23 09:06:36;;;;;;;33.65;14.05;;;;;;;;;;5037053;28;20021;-77
2022/03/23 09:09:03;;;;;;;32.30;15.35;;;;;;;;;;5042982;28;20084;-77
2022/03/23 09:11:29;;;;;;;39.17;16.67;;;;;;;;;;5044631;28;20363;-79
2022/03/23 09:13:57;;;;;;;28.95;14.02;;;;;;;;;;5054831;28;20045;-77
2022/03/23 09:16:23;;;;;;;32.97;15.27;;;;;;;;;;5055427;28;20505;-77
2022/03/23 09:18:49;;;;;;;33.90;15.85;;;;;;;;;;5054523;28;20036;-77
2022/03/23 09:21:16;;;;;;;36.42;16.77;;;;;;;;;;5050056;28;20017;-77
2022/03/23 09:23:43;;;;;;;37.00;16.77;;;;;;;;;;5054780;28;20085;-78
2022/03/23 09:26:11;;;;;;;30.67;16.40;;;;;;;;;;5053203;28;20536;-76
2022/03/23 09:28:38;;;;;;;38.58;17.58;;;;;;;;;;5054539;28;20033;-78
2022/03/23 09:31:04;;;;;;;40.90;17.75;;;;;;;;;;5054629;28;20163;-78
2022/03/23 09:33:30;;;;;;;36.85;18.08;;;;;;;;;;5053492;28;20094;-78
2022/03/23 09:35:56;;;;;;;34.60;17.98;;;;;;;;;;5047847;28;20021;-77
2022/03/23 09:38:22;;;;;;;37.22;17.80;;;;;;;;;;5046236;28;20029;-77
2022/03/23 09:40:52;;;;;;;32.20;17.10;;;;;;;;;;5042855;28;20029;-77
2022/03/23 09:43:24;;;;;;;37.28;18.63;;;;;;;;;;5043001;28;20654;-76
2022/03/23 09:45:51;;;;;;;39.03;17.02;;;;;;;;;;5051870;28;20447;-77
2022/03/23 09:48:21;;;;;;;36.35;17.95;;;;;;;;;;5044284;28;20035;-77
2022/03/23 09:50:50;;;;;;;36.50;17.80;;;;;;;;;;5046669;28;20032;-77
2022/03/23 09:53:17;;;;;;;36.30;17.98;;;;;;;;;;5042276;28;20023;-77
2022/03/23 09:55:44;;;;;;;44.05;20.35;;;;;;;;;;5043866;28;20500;-77
2022/03/23 09:58:10;;;;;;;38.22;18.33;;;;;;;;;;5049578;28;20028;-76
2022/03/23 10:00:41;;;;;;;38.95;19.20;;;;;;;;;;5048096;28;20083;-78
2022/03/23 10:03:10;;;;;;;45.50;19.95;;;;;;;;;;5039737;28;20064;-79
2022/03/23 10:05:39;;;;;;;41.35;17.85;;;;;;;;;;5033002;28;20484;-77
2022/03/23 10:08:20;;;;;;;43.30;19.70;;;;;;;;;;5047314;28;20143;-77
2022/03/23 10:11:13;;;;;;;38.95;19.73;;;;;;;;;;5053217;28;20035;-77
2022/03/23 10:13:58;;;;;;;43.08;19.00;;;;;;;;;;5040877;28;20397;-76
2022/03/23 10:16:24;;;;;;;38.50;19.10;;;;;;;;;;5051369;28;20028;-76
2022/03/23 10:18:56;;;;;;;47.90;21.92;;;;;;;;;;5025912;28;20029;-77
2022/03/23 10:21:26;;;;;;;44.65;20.33;;;;;;;;;;5050251;28;20043;-77
2022/03/23 10:23:58;;;;;;;48.22;20.60;;;;;;;;;;5047046;28;20430;-77
2022/03/23 10:26:26;;;;;;;45.40;20.30;;;;;;;;;;5017530;28;20542;-77
2022/03/23 10:28:52;;;;;;;40.63;20.13;;;;;;;;;;5047862;28;20059;-78
2022/03/23 10:31:22;;;;;;;44.15;20.90;;;;;;;;;;5042986;28;20025;-78
2022/03/23 10:33:58;;;;;;;47.10;22.60;;;;;;;;;;5047105;28;20021;-79
2022/03/23 10:36:28;;;;;;;42.13;20.90;;;;;;;;;;5044498;28;20028;-79
2022/03/23 10:39:01;;;;;;;41.40;21.02;;;;;;;;;;5036597;28;20389;-80
2022/03/23 10:41:29;;;;;;;43.70;21.95;;;;;;;;;;5049839;28;20029;-80
2022/03/23 10:43:55;;;;;;;42.40;20.83;;;;;;;;;;5040822;28;20096;-78
2022/03/23 10:46:21;;;;;;;46.00;21.98;;;;;;;;;;5052684;28;20108;-77
2022/03/23 10:49:03;;;;;;;52.40;23.00;;;;;;;;;;5038759;28;20037;-81
2022/03/23 10:51:30;;;;;;;47.88;21.95;;;;;;;;;;5037082;28;20067;-80
2022/03/23 10:53:57;;;;;;;46.88;21.50;;;;;;;;;;5045753;28;20025;-80
2022/03/23 10:56:30;;;;;;;48.22;22.92;;;;;;;;;;5044332;28;20090;-79
2022/03/23 10:59:17;;;;;;;45.67;21.35;;;;;;;;;;5037177;28;20116;-78
2022/03/23 11:01:55;;;;;;;43.08;19.98;;;;;;;;;;5021301;28;20029;-78
2022/03/23 11:04:21;;;;;;;40.40;19.30;;;;;;;;;;5024386;28;20068;-77
2022/03/23 11:06:47;;;;;;;41.80;19.25;;;;;;;;;;5047210;28;20032;-77
2022/03/23 11:17:51;;;;;;;37.35;18.92;;;;;;;;;;5038914;28;20087;-77
2022/03/23 11:20:17;;;;;;;43.25;18.63;;;;;;;;;;5044387;28;20028;-79
2022/03/23 11:22:43;;;;;;;40.15;18.90;;;;;;;;;;5043181;28;20104;-80
2022/03/23 11:25:10;;;;;;;40.75;20.60;;;;;;;;;;5048044;28;20021;-78
2022/03/23 11:27:37;;;;;;;37.67;20.15;;;;;;;;;;5036244;28;20098;-78
2022/03/23 11:30:03;;;;;;;39.30;20.52;;;;;;;;;;5048551;28;20045;-78
2022/03/23 11:32:33;;;;;;;42.17;21.23;;;;;;;;;;5052762;28;20037;-78
2022/03/23 11:35:04;;;;;;;46.28;20.15;;;;;;;;;;5043672;28;21317;-78
2022/03/23 11:37:32;;;;;;;42.63;19.60;;;;;;;;;;5042928;28;20112;-78
2022/03/23 11:39:58;;;;;;;35.65;17.38;;;;;;;;;;5039414;28;20029;-75
2022/03/23 11:42:25;;;;;;;35.25;16.73;;;;;;;;;;5045101;28;20035;-78
2022/03/23 11:44:51;;;;;;;37.78;18.02;;;;;;;;;;5050513;28;20028;-76
2022/03/23 11:47:36;;;;;;;38.35;19.00;;;;;;;;;;5039716;28;20033;-76
2022/03/23 11:50:06;;;;;;;35.95;17.13;;;;;;;;;;5032211;28;20029;-78
2022/03/23 11:52:32;;;;;;;29.67;16.95;;;;;;;;;;5040654;28;20247;-75
2022/03/23 11:57:54;;;;;;;36.70;18.42;;;;;;;;;;5043090;28;20466;-82
2022/03/23 12:00:21;;;;;;;38.60;18.63;;;;;;;;;;5030830;28;20076;-76
2022/03/23 12:02:48;;;;;;;32.30;17.35;;;;;;;;;;5043299;28;20032;-85
2022/03/23 12:05:35;;;;;;;25.20;13.65;;;;;;;;;;5019136;28;20037;-78
2022/03/23 12:08:01;;;;;;;24.27;10.88;;;;;;;;;;5039995;28;20033;-78
2022/03/23 12:10:31;;;;;;;29.02;11.10;;;;;;;;;;5043354;28;20025;-79
2022/03/23 12:12:57;;;;;;;25.35;11.95;;;;;;;;;;5044639;28;20025;-79
2022/03/23 12:15:25;;;;;;;29.15;13.38;;;;;;;;;;5018440;28;20532;-78
2022/03/23 12:17:57;;;;;;;23.58;11.35;;;;;;;;;;5038048;28;20037;-78
2022/03/23 12:20:30;;;;;;;20.37;10.40;;;;;;;;;;5044392;28;20391;-77
2022/03/23 12:23:16;;;;;;;20.67;8.73;;;;;;;;;;5051508;28;20540;-76
2022/03/23 12:25:49;;;;;;;23.83;13.35;;;;;;;;;;4995552;28;20041;-79
2022/03/23 12:28:26;;;;;;;35.97;13.45;;;;;;;;;;5038415;28;20030;-77
2022/03/23 12:30:58;;;;;;;23.58;12.68;;;;;;;;;;5041863;28;20039;-77
2022/03/23 12:33:27;;;;;;;22.30;11.90;;;;;;;;;;5043211;28;20033;-81
2022/03/23 12:35:59;;;;;;;27.77;11.48;;;;;;;;;;5042508;28;20025;-81
2022/03/23 12:38:27;;;;;;;22.00;12.73;;;;;;;;;;5043402;28;20077;-83
2022/03/23 12:40:56;;;;;;;26.52;12.38;;;;;;;;;;5053899;28;20195;-79
2022/03/23 12:43:46;;;;;;;26.30;11.50;;;;;;;;;;5049495;28;20029;-81
2022/03/23 12:46:26;;;;;;;22.50;10.70;;;;;;;;;;5042103;28;20539;-82
2022/03/23 13:00:10;;;;;;;21.33;11.02;;;;;;;;;;5035802;28;20032;-81
2022/03/23 13:02:36;;;;;;;24.95;11.77;;;;;;;;;;5035077;28;20037;-81
2022/03/23 13:05:05;;;;;;;26.25;12.85;;;;;;;;;;5041384;28;20025;-82
2022/03/23 13:07:31;;;;;;;24.27;12.90;;;;;;;;;;5043785;28;20048;-82
2022/03/23 13:09:59;;;;;;;26.48;12.85;;;;;;;;;;5040912;28;20756;-79
2022/03/23 13:12:28;;;;;;;24.90;12.80;;;;;;;;;;5040413;28;20382;-81
2022/03/23 13:14:54;;;;;;;25.77;13.40;;;;;;;;;;5049480;28;20120;-79
2022/03/23 13:17:20;;;;;;;26.05;12.30;;;;;;;;;;5054111;28;20017;-78
2022/03/23 13:19:46;;;;;;;29.40;13.52;;;;;;;;;;5036611;28;20021;-79
2022/03/23 13:22:12;;;;;;;28.67;13.38;;;;;;;;;;5047944;28;20064;-80
2022/03/23 13:24:38;;;;;;;26.98;12.98;;;;;;;;;;5040215;28;20567;-78
2022/03/23 13:27:12;;;;;;;23.30;12.63;;;;;;;;;;5040825;28;20459;-77
2022/03/23 13:29:40;;;;;;;28.80;13.15;;;;;;;;;;5044114;28;20028;-82
2022/03/23 13:32:07;;;;;;;25.77;13.57;;;;;;;;;;5040144;28;20025;-81
2022/03/23 13:34:37;;;;;;;26.15;13.27;;;;;;;;;;5029606;28;20078;-77
2022/03/23 13:37:03;;;;;;;22.20;12.52;;;;;;;;;;5041443;28;20162;-79
2022/03/23 13:39:29;;;;;;;28.45;12.80;;;;;;;;;;5053044;28;20017;-80
2022/03/23 13:44:56;;;;;;;24.88;12.25;;;;;;;;;;5045598;28;20036;-78
2022/03/23 13:47:35;;;;;;;25.30;13.40;;;;;;;;;;5040134;28;20045;-83
2022/03/23 13:50:02;;;;;;;39.30;14.88;;;;;;;;;;5047219;28;20028;-79
2022/03/23 13:52:29;;;;;;;27.27;13.35;;;;;;;;;;5048452;28;20021;-78
2022/03/23 13:54:59;;;;;;;31.52;13.68;;;;;;;;;;5041139;28;20052;-77
2022/03/23 13:57:26;;;;;;;25.00;12.80;;;;;;;;;;5045268;28;20352;-78
2022/03/23 13:59:52;;;;;;;29.25;12.13;;;;;;;;;;5045515;28;20032;-81
2022/03/23 14:02:23;;;;;;;23.88;12.82;;;;;;;;;;5042201;28;20044;-82
2022/03/23 14:04:49;;;;;;;42.50;19.73;;;;;;;;;;5047273;28;20109;-79
2022/03/23 14:07:15;;;;;;;25.23;12.52;;;;;;;;;;5043703;28;20060;-80
2022/03/23 14:09:41;;;;;;;22.90;12.75;;;;;;;;;;5042613;28;20033;-80
2022/03/23 14:12:09;;;;;;;22.00;12.50;;;;;;;;;;5027599;28;20025;-85
2022/03/23 14:14:39;;;;;;;29.50;12.90;;;;;;;;;;5050109;28;20022;-76
2022/03/23 14:17:05;;;;;;;25.38;11.80;;;;;;;;;;5046346;28;20033;-79
2022/03/23 14:19:33;;;;;;;25.73;12.80;;;;;;;;;;5046396;28;20037;-88
2022/03/23 14:22:00;;;;;;;24.00;12.27;;;;;;;;;;5043823;28;20066;-82
2022/03/23 14:24:34;;;;;;;28.50;12.05;;;;;;;;;;5045799;28;20032;-80
2022/03/23 14:27:12;;;;;;;26.17;12.57;;;;;;;;;;5045390;28;20029;-79
2022/03/23 14:29:39;;;;;;;27.05;12.43;;;;;;;;;;5044157;28;20120;-80
2022/03/23 14:32:05;;;;;;;24.83;13.57;;;;;;;;;;5052072;28;20471;-79
2022/03/23 14:34:36;;;;;;;23.95;13.52;;;;;;;;;;5039221;28;20017;-85
2022/03/23 14:37:09;;;;;;;28.42;13.98;;;;;;;;;;5035457;28;20430;-76
2022/03/23 14:39:53;;;;;;;29.98;14.15;;;;;;;;;;5047018;28;20033;-82
2022/03/23 14:42:19;;;;;;;29.77;13.82;;;;;;;;;;5049958;28;20113;-83
2022/03/23 14:44:47;;;;;;;31.23;13.88;;;;;;;;;;5049826;28;20025;-78
2022/03/23 14:47:13;;;;;;;26.63;14.30;;;;;;;;;;5051699;28;20171;-81
2022/03/23 14:49:43;;;;;;;24.60;13.05;;;;;;;;;;5053099;28;20474;-80
2022/03/23 14:52:11;;;;;;;28.38;13.63;;;;;;;;;;5052527;28;20035;-76
2022/03/23 14:54:39;;;;;;;27.90;14.25;;;;;;;;;;5052524;28;20032;-76
2022/03/23 14:57:06;;;;;;;25.98;13.80;;;;;;;;;;5051379;28;20021;-76
2022/03/23 14:59:42;;;;;;;28.25;13.60;;;;;;;;;;5051864;28;20054;-78